Spencer, Iowa
Current Conditions -  °F | °C
As of 10:53 AM on Tuesday 27 Jan 2015 (Local Time) from KSPW Reporting Station
Few Clouds Few Clouds  
Wind Chill: 28°   Ceiling: Unl
Heat Index: 34°   Visibility: 10mi
Dew Point: 31°   Wind: 7mph
Humidity: 89%   Direction: 110°ESE
Pressure: 30.13"   Gusts: NA
Location:  43.14°N, 95.14°W
Report Text: KSPW 271653Z AUTO 11006KT 10SM FEW005 01/M01 A3013 RMK AO2 SLP217 T00111006 TSNO
Loading
Personal Weather Stations






























Interactive Weather Map New forecast layout! Learn more

10-Day Weather Forecast

Advertisements
Track Severe Weather on mobile